EDW46 LSZH-OOMS
Flight info
| Callsign | EDW46 |
|---|---|
| Flight time | N/A |
| Altitude | 35000 |
| Route | DEGES Z2 TUNUM Z204 GEDSO DCT VEKEN/N0467F370 DCT DARZA DCT PINDO/N0469F390 DCT PAXIS Y707 OBRAN L321 REXUM M872 MEDRO/N0468F410 M872 GOKSA Y214 RAPMA DCT MEVDO DCT ALROK DCT DEBIN DCT MIDGU M717 PUTSO N685 LAKLU G216 MCT |
| Aircraft | A343/H-SDE2E3FGHIJ4J5M1RWXY/LB1D1 |
Departure
| Time | N/A |
|---|---|
| Airport | Zürich Airport (LSZH) |
Arrival
| Time | 2026-05-04 20:29 |
|---|---|
| Airport | Muscat International Airport (OOMS) |
| Time | Latitude | Longitude | Altitude | Speed | Heading |
|---|---|---|---|---|---|
| 2026-05-04 17:54 | 32.30777 | 28.18957 | 39131 ft | 504 kts | 163° |
| 2026-05-04 17:54 | 32.25421 | 28.21689 | 39119 ft | 504 kts | 163° |
| 2026-05-04 17:55 | 32.08385 | 28.30356 | 39124 ft | 504 kts | 163° |
| 2026-05-04 17:55 | 31.82709 | 28.43352 | 39125 ft | 502 kts | 164° |
| 2026-05-04 17:56 | 31.57012 | 28.56230 | 39106 ft | 500 kts | 164° |
| 2026-05-04 17:56 | 31.31431 | 28.68931 | 39129 ft | 498 kts | 165° |
| 2026-05-04 17:57 | 31.06043 | 28.81471 | 39131 ft | 498 kts | 165° |
| 2026-05-04 17:57 | 30.80465 | 28.94033 | 39139 ft | 498 kts | 165° |
| 2026-05-04 17:58 | 30.54954 | 29.06489 | 39135 ft | 496 kts | 166° |
| 2026-05-04 17:58 | 30.50560 | 29.09130 | 39134 ft | 509 kts | 153° |
| 2026-05-04 17:58 | 30.47750 | 29.11687 | 39136 ft | 518 kts | 143° |
| 2026-05-04 17:59 | 30.42618 | 29.17556 | 39124 ft | 522 kts | 140° |
| 2026-05-04 18:00 | 30.35097 | 29.26726 | 39112 ft | 522 kts | 140° |
| 2026-05-04 18:00 | 30.30088 | 29.32764 | 39122 ft | 521 kts | 140° |
| 2026-05-04 18:01 | 30.25039 | 29.38801 | 39119 ft | 520 kts | 140° |
| 2026-05-04 18:01 | 30.19998 | 29.44808 | 39116 ft | 520 kts | 140° |
| 2026-05-04 18:02 | 30.12452 | 29.53787 | 39115 ft | 520 kts | 140° |
| 2026-05-04 18:02 | 30.07434 | 29.59752 | 39107 ft | 519 kts | 141° |
| 2026-05-04 18:03 | 30.02386 | 29.65743 | 39114 ft | 518 kts | 141° |
| 2026-05-04 18:03 | 29.97348 | 29.71711 | 39110 ft | 518 kts | 141° |
| 2026-05-04 18:04 | 29.92314 | 29.77664 | 39110 ft | 518 kts | 141° |
| 2026-05-04 18:05 | 29.84787 | 29.86551 | 39102 ft | 518 kts | 141° |
| 2026-05-04 18:05 | 29.79736 | 29.92502 | 39110 ft | 517 kts | 141° |
| 2026-05-04 18:06 | 29.72201 | 30.01364 | 39107 ft | 517 kts | 141° |
| 2026-05-04 18:06 | 29.67146 | 30.07298 | 39100 ft | 517 kts | 141° |
| 2026-05-04 18:07 | 29.62129 | 30.13178 | 39099 ft | 517 kts | 141° |
| 2026-05-04 18:07 | 29.57085 | 30.19082 | 39097 ft | 516 kts | 142° |
| 2026-05-04 18:08 | 29.52083 | 30.24926 | 39103 ft | 515 kts | 142° |
| 2026-05-04 18:08 | 29.47070 | 30.30764 | 39117 ft | 508 kts | 142° |
| 2026-05-04 18:09 | 29.42111 | 30.36495 | 39346 ft | 508 kts | 142° |
| 2026-05-04 18:09 | 29.37076 | 30.42232 | 39368 ft | 512 kts | 143° |
| 2026-05-04 18:10 | 29.31947 | 30.47974 | 39249 ft | 514 kts | 143° |
| 2026-05-04 18:10 | 29.29375 | 30.50823 | 39121 ft | 512 kts | 144° |
| 2026-05-04 18:10 | 29.26839 | 30.53610 | 38949 ft | 511 kts | 144° |
| 2026-05-04 18:11 | 29.24257 | 30.56424 | 38731 ft | 511 kts | 144° |
| 2026-05-04 18:11 | 29.21667 | 30.59224 | 38416 ft | 511 kts | 144° |
| 2026-05-04 18:11 | 29.19067 | 30.62009 | 38043 ft | 512 kts | 145° |
| 2026-05-04 18:11 | 29.16455 | 30.64793 | 37678 ft | 513 kts | 144° |
| 2026-05-04 18:12 | 29.11350 | 30.70512 | 37728 ft | 518 kts | 140° |
| 2026-05-04 18:12 | 29.08888 | 30.73538 | 37879 ft | 518 kts | 140° |
| 2026-05-04 18:12 | 29.06464 | 30.76534 | 38069 ft | 518 kts | 140° |
| 2026-05-04 18:13 | 29.04020 | 30.79571 | 38263 ft | 518 kts | 140° |
| 2026-05-04 18:13 | 29.01582 | 30.82609 | 38438 ft | 517 kts | 140° |
| 2026-05-04 18:13 | 28.96749 | 30.88643 | 38820 ft | 516 kts | 140° |
| 2026-05-04 18:14 | 28.94325 | 30.91666 | 38959 ft | 516 kts | 140° |
| 2026-05-04 18:14 | 28.91898 | 30.94691 | 39074 ft | 516 kts | 140° |
| 2026-05-04 18:14 | 28.89462 | 30.97721 | 39088 ft | 518 kts | 140° |
| 2026-05-04 18:15 | 28.79754 | 31.09785 | 39102 ft | 514 kts | 140° |
| 2026-05-04 18:16 | 28.74921 | 31.15773 | 39101 ft | 514 kts | 140° |
| 2026-05-04 18:16 | 28.70074 | 31.21770 | 39101 ft | 514 kts | 140° |
| 2026-05-04 18:17 | 28.62878 | 31.30803 | 39098 ft | 514 kts | 140° |
| 2026-05-04 18:18 | 28.55688 | 31.39882 | 39097 ft | 513 kts | 140° |
| 2026-05-04 18:18 | 28.50922 | 31.45872 | 39099 ft | 513 kts | 140° |
| 2026-05-04 18:19 | 28.43724 | 31.54894 | 39101 ft | 513 kts | 141° |
| 2026-05-04 18:19 | 28.38943 | 31.60876 | 39104 ft | 512 kts | 141° |
| 2026-05-04 18:20 | 28.34145 | 31.66870 | 39105 ft | 512 kts | 141° |
| 2026-05-04 18:20 | 28.29336 | 31.72870 | 39094 ft | 512 kts | 141° |
| 2026-05-04 18:21 | 28.24564 | 31.78814 | 39102 ft | 512 kts | 141° |
| 2026-05-04 18:21 | 28.19757 | 31.84793 | 39108 ft | 512 kts | 141° |
| 2026-05-04 18:22 | 28.14953 | 31.90761 | 39105 ft | 512 kts | 141° |
| 2026-05-04 18:22 | 28.10138 | 31.96734 | 39105 ft | 512 kts | 141° |
| 2026-05-04 18:23 | 28.05365 | 32.02654 | 39105 ft | 513 kts | 140° |
| 2026-05-04 18:23 | 28.03162 | 32.05899 | 39105 ft | 524 kts | 130° |
| 2026-05-04 18:23 | 28.01263 | 32.09444 | 39095 ft | 527 kts | 128° |
| 2026-05-04 18:24 | 27.97678 | 32.16733 | 39096 ft | 530 kts | 126° |
| 2026-05-04 18:24 | 27.94200 | 32.24046 | 39083 ft | 531 kts | 126° |
| 2026-05-04 18:25 | 27.90688 | 32.31392 | 39066 ft | 530 kts | 126° |
| 2026-05-04 18:25 | 27.87150 | 32.38726 | 39066 ft | 531 kts | 126° |
| 2026-05-04 18:26 | 27.83608 | 32.46029 | 39041 ft | 533 kts | 126° |
| 2026-05-04 18:26 | 27.80041 | 32.53375 | 39038 ft | 533 kts | 126° |
| 2026-05-04 18:27 | 27.76463 | 32.60734 | 39036 ft | 533 kts | 126° |
| 2026-05-04 18:27 | 27.72907 | 32.68033 | 39035 ft | 533 kts | 126° |
| 2026-05-04 18:28 | 27.69325 | 32.75376 | 39036 ft | 532 kts | 126° |
| 2026-05-04 18:28 | 27.65751 | 32.82688 | 39032 ft | 532 kts | 127° |
| 2026-05-04 18:29 | 27.62161 | 32.90019 | 39011 ft | 532 kts | 127° |
| 2026-05-04 18:29 | 27.58599 | 32.97280 | 39027 ft | 533 kts | 127° |
| 2026-05-04 18:30 | 27.53192 | 33.08279 | 39027 ft | 533 kts | 127° |
| 2026-05-04 18:31 | 27.49606 | 33.15561 | 39029 ft | 533 kts | 127° |
| 2026-05-04 18:31 | 27.46020 | 33.22827 | 39021 ft | 533 kts | 127° |
| 2026-05-04 18:32 | 27.42408 | 33.30133 | 39017 ft | 533 kts | 127° |
| 2026-05-04 18:32 | 27.38775 | 33.37466 | 39011 ft | 538 kts | 127° |
| 2026-05-04 18:33 | 27.35137 | 33.44809 | 38962 ft | 539 kts | 127° |
| 2026-05-04 18:33 | 27.31467 | 33.52195 | 39001 ft | 539 kts | 127° |
| 2026-05-04 18:34 | 27.27821 | 33.59516 | 39005 ft | 539 kts | 127° |
| 2026-05-04 18:34 | 27.24152 | 33.66873 | 39004 ft | 539 kts | 127° |
| 2026-05-04 18:35 | 27.20476 | 33.74232 | 39001 ft | 539 kts | 128° |
| 2026-05-04 18:35 | 27.17065 | 33.81724 | 38995 ft | 548 kts | 120° |
| 2026-05-04 18:36 | 27.14149 | 33.89706 | 38994 ft | 550 kts | 119° |
| 2026-05-04 18:36 | 27.11346 | 33.97649 | 38970 ft | 550 kts | 119° |
| 2026-05-04 18:37 | 27.08514 | 34.05663 | 38985 ft | 549 kts | 119° |
| 2026-05-04 18:37 | 27.06154 | 34.12293 | 38978 ft | 549 kts | 119° |
| 2026-05-04 18:38 | 27.03317 | 34.20222 | 38976 ft | 549 kts | 119° |
| 2026-05-04 18:38 | 27.00467 | 34.28182 | 38978 ft | 548 kts | 119° |
| 2026-05-04 18:39 | 26.97631 | 34.36070 | 38977 ft | 548 kts | 119° |
| 2026-05-04 18:39 | 26.94780 | 34.43973 | 38969 ft | 548 kts | 119° |
| 2026-05-04 18:40 | 26.91922 | 34.51888 | 38967 ft | 548 kts | 119° |
| 2026-05-04 18:40 | 26.89054 | 34.59817 | 38972 ft | 548 kts | 119° |
| 2026-05-04 18:41 | 26.86184 | 34.67740 | 38971 ft | 548 kts | 119° |
| 2026-05-04 18:41 | 26.82736 | 34.77232 | 38962 ft | 548 kts | 119° |
| 2026-05-04 18:42 | 26.71207 | 35.08815 | 38973 ft | 547 kts | 120° |
| 2026-05-04 18:42 | 26.59632 | 35.40306 | 38959 ft | 546 kts | 120° |
| 2026-05-04 18:43 | 26.47815 | 35.71521 | 38947 ft | 544 kts | 121° |
| 2026-05-04 18:43 | 26.35974 | 36.02317 | 38941 ft | 540 kts | 121° |
| 2026-05-04 18:44 | 26.24054 | 36.33095 | 38938 ft | 538 kts | 121° |
| 2026-05-04 18:44 | 26.11041 | 36.62863 | 38923 ft | 529 kts | 127° |
| 2026-05-04 18:45 | 25.96895 | 36.91425 | 38927 ft | 526 kts | 127° |
| 2026-05-04 18:45 | 25.82729 | 37.19891 | 38924 ft | 524 kts | 127° |
| 2026-05-04 18:46 | 25.68713 | 37.48017 | 38925 ft | 525 kts | 127° |
| 2026-05-04 18:46 | 25.54543 | 37.76307 | 38947 ft | 524 kts | 127° |
| 2026-05-04 18:47 | 25.40311 | 38.04541 | 38930 ft | 525 kts | 127° |
| 2026-05-04 18:47 | 25.26017 | 38.32729 | 38928 ft | 524 kts | 128° |
| 2026-05-04 18:48 | 25.11668 | 38.60843 | 38937 ft | 524 kts | 128° |
| 2026-05-04 18:48 | 24.97361 | 38.88661 | 38959 ft | 524 kts | 128° |
| 2026-05-04 18:49 | 24.82834 | 39.16725 | 38970 ft | 527 kts | 128° |
| 2026-05-04 18:49 | 24.68298 | 39.44636 | 38963 ft | 529 kts | 128° |
| 2026-05-04 18:50 | 24.54629 | 39.73408 | 38964 ft | 545 kts | 105° |
| 2026-05-04 18:50 | 24.51288 | 40.06520 | 38947 ft | 547 kts | 101° |
| 2026-05-04 18:51 | 24.48007 | 40.39769 | 38941 ft | 545 kts | 101° |
| 2026-05-04 18:51 | 24.44674 | 40.72863 | 38956 ft | 544 kts | 101° |
| 2026-05-04 18:52 | 24.41278 | 41.05707 | 38953 ft | 542 kts | 101° |
| 2026-05-04 18:52 | 24.37814 | 41.38597 | 38958 ft | 540 kts | 101° |
| 2026-05-04 18:53 | 24.34289 | 41.71393 | 38958 ft | 540 kts | 101° |
| 2026-05-04 18:53 | 24.27711 | 42.02977 | 38949 ft | 532 kts | 111° |
| 2026-05-04 18:54 | 24.19422 | 42.34210 | 38955 ft | 531 kts | 111° |
| 2026-05-04 18:54 | 24.11125 | 42.65283 | 38964 ft | 531 kts | 111° |
| 2026-05-04 18:55 | 24.02800 | 42.96209 | 38966 ft | 531 kts | 111° |
| 2026-05-04 18:55 | 23.90151 | 43.42610 | 38977 ft | 531 kts | 111° |
| 2026-05-04 18:56 | 23.81637 | 43.73529 | 38955 ft | 529 kts | 111° |
| 2026-05-04 18:56 | 23.76226 | 44.03896 | 38915 ft | 533 kts | 98° |
| 2026-05-04 18:57 | 23.73855 | 44.36081 | 38933 ft | 530 kts | 98° |
| 2026-05-04 18:57 | 23.71365 | 44.68186 | 38932 ft | 528 kts | 98° |
| 2026-05-04 18:58 | 23.68838 | 44.99995 | 38925 ft | 529 kts | 98° |
| 2026-05-04 18:58 | 23.66244 | 45.31757 | 38912 ft | 526 kts | 98° |
| 2026-05-04 18:59 | 23.63574 | 45.63574 | 38898 ft | 524 kts | 98° |
| 2026-05-04 18:59 | 23.60851 | 45.95245 | 38892 ft | 523 kts | 98° |
| 2026-05-04 19:00 | 23.58069 | 46.26877 | 38906 ft | 522 kts | 99° |
| 2026-05-04 19:00 | 23.55257 | 46.58171 | 38901 ft | 521 kts | 99° |
| 2026-05-04 19:01 | 23.52358 | 46.89579 | 38877 ft | 519 kts | 99° |
| 2026-05-04 19:01 | 23.49432 | 47.20668 | 38864 ft | 516 kts | 99° |
| 2026-05-04 19:02 | 23.46440 | 47.51777 | 38850 ft | 516 kts | 99° |
| 2026-05-04 19:02 | 23.43381 | 47.82949 | 38842 ft | 515 kts | 99° |
| 2026-05-04 19:03 | 23.40285 | 48.13851 | 38823 ft | 517 kts | 99° |
| 2026-05-04 19:03 | 23.37845 | 48.33281 | 38822 ft | 510 kts | 112° |
| 2026-05-04 19:04 | 23.36498 | 48.36788 | 38820 ft | 503 kts | 123° |
| 2026-05-04 19:04 | 23.34775 | 48.40085 | 38821 ft | 501 kts | 125° |
| 2026-05-04 19:04 | 23.31064 | 48.46520 | 38819 ft | 500 kts | 128° |
| 2026-05-04 19:05 | 23.27270 | 48.52880 | 38815 ft | 501 kts | 128° |
| 2026-05-04 19:05 | 23.23512 | 48.59216 | 38813 ft | 500 kts | 127° |
| 2026-05-04 19:06 | 23.19773 | 48.65565 | 38824 ft | 500 kts | 127° |
| 2026-05-04 19:06 | 23.16017 | 48.71950 | 38815 ft | 500 kts | 127° |
| 2026-05-04 19:07 | 23.12265 | 48.78321 | 38812 ft | 500 kts | 127° |
| 2026-05-04 19:07 | 23.08530 | 48.84654 | 38801 ft | 500 kts | 127° |
| 2026-05-04 19:08 | 23.04770 | 48.91022 | 38812 ft | 499 kts | 127° |
| 2026-05-04 19:08 | 23.01036 | 48.97335 | 38810 ft | 499 kts | 127° |
| 2026-05-04 19:09 | 22.97275 | 49.03688 | 38814 ft | 499 kts | 127° |
| 2026-05-04 19:09 | 22.93535 | 49.09995 | 38802 ft | 499 kts | 127° |
| 2026-05-04 19:10 | 22.89772 | 49.16336 | 38807 ft | 498 kts | 127° |
| 2026-05-04 19:10 | 22.86015 | 49.22659 | 38807 ft | 498 kts | 127° |
| 2026-05-04 19:11 | 22.82258 | 49.28972 | 38807 ft | 498 kts | 127° |
| 2026-05-04 19:11 | 22.78515 | 49.35257 | 38806 ft | 498 kts | 128° |
| 2026-05-04 19:12 | 22.72951 | 49.44583 | 38809 ft | 497 kts | 127° |
| 2026-05-04 19:13 | 22.69149 | 49.50939 | 38754 ft | 499 kts | 127° |
| 2026-05-04 19:13 | 22.65374 | 49.57253 | 38811 ft | 497 kts | 127° |
| 2026-05-04 19:14 | 22.61640 | 49.63493 | 38810 ft | 496 kts | 127° |
| 2026-05-04 19:14 | 22.57870 | 49.69780 | 38813 ft | 496 kts | 127° |
| 2026-05-04 19:15 | 22.54282 | 49.76194 | 38810 ft | 501 kts | 118° |
| 2026-05-04 19:15 | 22.52140 | 49.83354 | 38808 ft | 506 kts | 107° |
| 2026-05-04 19:16 | 22.50550 | 49.90810 | 38812 ft | 508 kts | 105° |
| 2026-05-04 19:16 | 22.49058 | 49.98246 | 38815 ft | 508 kts | 105° |
| 2026-05-04 19:17 | 22.47536 | 50.05717 | 38812 ft | 508 kts | 105° |
| 2026-05-04 19:17 | 22.45990 | 50.13163 | 38813 ft | 508 kts | 106° |
| 2026-05-04 19:18 | 22.44428 | 50.20624 | 38814 ft | 508 kts | 106° |
| 2026-05-04 19:18 | 22.42860 | 50.28094 | 38815 ft | 508 kts | 106° |
| 2026-05-04 19:19 | 22.41563 | 50.34267 | 38817 ft | 508 kts | 106° |
| 2026-05-04 19:19 | 22.39993 | 50.41720 | 38816 ft | 508 kts | 106° |
| 2026-05-04 19:20 | 22.38417 | 50.49192 | 38819 ft | 508 kts | 106° |
| 2026-05-04 19:20 | 22.36847 | 50.56609 | 38813 ft | 508 kts | 105° |
| 2026-05-04 19:21 | 22.35269 | 50.64052 | 38813 ft | 507 kts | 105° |
| 2026-05-04 19:21 | 22.33695 | 50.71459 | 38812 ft | 507 kts | 105° |
| 2026-05-04 19:22 | 22.32112 | 50.78887 | 38815 ft | 507 kts | 105° |
| 2026-05-04 19:22 | 22.30530 | 50.86293 | 38815 ft | 507 kts | 105° |
| 2026-05-04 19:23 | 22.28934 | 50.93746 | 38810 ft | 508 kts | 105° |
| 2026-05-04 19:23 | 22.27346 | 51.01148 | 38811 ft | 509 kts | 105° |
| 2026-05-04 19:24 | 22.25745 | 51.08593 | 38808 ft | 508 kts | 105° |
| 2026-05-04 19:24 | 22.24143 | 51.16026 | 38810 ft | 506 kts | 105° |
| 2026-05-04 19:25 | 22.22550 | 51.23398 | 38808 ft | 506 kts | 105° |
| 2026-05-04 19:25 | 22.20945 | 51.30808 | 38810 ft | 506 kts | 105° |
| 2026-05-04 19:26 | 22.19343 | 51.38184 | 38806 ft | 507 kts | 105° |
| 2026-05-04 19:26 | 22.17729 | 51.45600 | 38807 ft | 507 kts | 105° |
| 2026-05-04 19:27 | 22.16111 | 51.53020 | 38809 ft | 507 kts | 105° |
| 2026-05-04 19:27 | 22.14499 | 51.60394 | 38806 ft | 506 kts | 105° |
| 2026-05-04 19:28 | 22.12881 | 51.67783 | 38809 ft | 505 kts | 105° |
| 2026-05-04 19:28 | 22.11271 | 51.75116 | 38807 ft | 505 kts | 105° |
| 2026-05-04 19:29 | 22.09648 | 51.82486 | 38804 ft | 505 kts | 105° |
| 2026-05-04 19:29 | 22.08021 | 51.89864 | 38804 ft | 504 kts | 105° |
| 2026-05-04 19:30 | 22.06404 | 51.97178 | 38802 ft | 504 kts | 105° |
| 2026-05-04 19:30 | 22.04769 | 52.04556 | 38804 ft | 504 kts | 105° |
| 2026-05-04 19:31 | 22.03135 | 52.11911 | 38803 ft | 502 kts | 105° |
| 2026-05-04 19:31 | 22.01515 | 52.19190 | 38799 ft | 501 kts | 105° |
| 2026-05-04 19:32 | 21.99885 | 52.26501 | 38799 ft | 501 kts | 105° |
| 2026-05-04 19:32 | 21.98259 | 52.33768 | 38799 ft | 501 kts | 105° |
| 2026-05-04 19:33 | 21.96619 | 52.41089 | 38794 ft | 500 kts | 105° |
| 2026-05-04 19:33 | 21.94988 | 52.48354 | 38796 ft | 500 kts | 105° |
| 2026-05-04 19:34 | 21.93346 | 52.55648 | 38796 ft | 500 kts | 105° |
| 2026-05-04 19:34 | 21.91708 | 52.62909 | 38789 ft | 500 kts | 105° |
| 2026-05-04 19:35 | 21.90185 | 52.70235 | 38794 ft | 500 kts | 98° |
| 2026-05-04 19:35 | 21.89572 | 52.77643 | 38797 ft | 500 kts | 95° |
| 2026-05-04 19:36 | 21.89147 | 52.85138 | 38788 ft | 501 kts | 94° |
| 2026-05-04 19:36 | 21.88754 | 52.92574 | 38790 ft | 501 kts | 94° |
| 2026-05-04 19:37 | 21.88342 | 53.00085 | 38789 ft | 501 kts | 94° |
| 2026-05-04 19:37 | 21.87915 | 53.07589 | 38788 ft | 502 kts | 94° |
| 2026-05-04 19:38 | 21.87484 | 53.15061 | 38789 ft | 502 kts | 94° |
| 2026-05-04 19:38 | 21.87048 | 53.22562 | 38785 ft | 502 kts | 95° |
| 2026-05-04 19:39 | 21.86610 | 53.30044 | 38786 ft | 503 kts | 94° |
| 2026-05-04 19:39 | 21.86166 | 53.37566 | 38780 ft | 503 kts | 94° |
| 2026-05-04 19:40 | 21.85722 | 53.45049 | 38782 ft | 501 kts | 94° |
| 2026-05-04 19:40 | 21.85274 | 53.52532 | 38783 ft | 500 kts | 94° |
| 2026-05-04 19:41 | 21.84825 | 53.59974 | 38779 ft | 500 kts | 94° |
| 2026-05-04 19:41 | 21.84369 | 53.67476 | 38780 ft | 500 kts | 94° |
| 2026-05-04 19:42 | 21.83913 | 53.74921 | 38778 ft | 500 kts | 94° |
| 2026-05-04 19:42 | 21.83450 | 53.82413 | 38779 ft | 501 kts | 94° |
| 2026-05-04 19:43 | 21.82987 | 53.89876 | 38777 ft | 501 kts | 94° |
| 2026-05-04 19:43 | 21.82517 | 53.97373 | 38777 ft | 501 kts | 94° |
| 2026-05-04 19:44 | 21.82047 | 54.04826 | 38774 ft | 501 kts | 94° |
| 2026-05-04 19:44 | 21.81570 | 54.12329 | 38774 ft | 502 kts | 94° |
| 2026-05-04 19:45 | 21.81093 | 54.19790 | 38774 ft | 502 kts | 94° |
| 2026-05-04 19:45 | 21.80610 | 54.27297 | 38768 ft | 500 kts | 94° |
| 2026-05-04 19:46 | 21.80128 | 54.34732 | 38769 ft | 500 kts | 94° |
| 2026-05-04 19:46 | 21.79639 | 54.42202 | 38770 ft | 500 kts | 94° |
| 2026-05-04 19:47 | 21.79419 | 54.49664 | 38766 ft | 500 kts | 84° |
| 2026-05-04 19:47 | 21.81130 | 54.56861 | 38765 ft | 497 kts | 63° |
| 2026-05-04 19:47 | 21.82826 | 54.60034 | 38766 ft | 494 kts | 52° |
| 2026-05-04 19:48 | 21.84946 | 54.62953 | 38767 ft | 494 kts | 49° |
| 2026-05-04 19:48 | 21.89458 | 54.68561 | 38768 ft | 494 kts | 46° |
| 2026-05-04 19:49 | 21.94050 | 54.74110 | 38767 ft | 495 kts | 46° |
| 2026-05-04 19:49 | 21.98586 | 54.79646 | 38766 ft | 496 kts | 47° |
| 2026-05-04 19:50 | 22.03147 | 54.85269 | 38769 ft | 497 kts | 47° |
| 2026-05-04 19:50 | 22.07695 | 54.90899 | 38768 ft | 497 kts | 47° |
| 2026-05-04 19:51 | 22.12212 | 54.96497 | 38766 ft | 497 kts | 47° |
| 2026-05-04 19:51 | 22.16778 | 55.02158 | 38768 ft | 497 kts | 47° |
| 2026-05-04 19:52 | 22.21308 | 55.07778 | 38768 ft | 497 kts | 47° |
| 2026-05-04 19:52 | 22.25824 | 55.13390 | 38771 ft | 497 kts | 47° |
| 2026-05-04 19:53 | 22.30372 | 55.19046 | 38769 ft | 497 kts | 47° |
| 2026-05-04 19:53 | 22.34920 | 55.24708 | 38771 ft | 498 kts | 47° |
| 2026-05-04 19:54 | 22.39443 | 55.30344 | 38771 ft | 500 kts | 47° |
| 2026-05-04 19:54 | 22.44001 | 55.36044 | 38772 ft | 500 kts | 48° |
| 2026-05-04 19:55 | 22.48057 | 55.42194 | 38773 ft | 502 kts | 54° |
| 2026-05-04 19:55 | 22.51911 | 55.48459 | 38774 ft | 502 kts | 55° |
| 2026-05-04 19:56 | 22.55742 | 55.54767 | 38774 ft | 502 kts | 55° |
| 2026-05-04 19:56 | 22.59565 | 55.61059 | 38779 ft | 502 kts | 55° |
| 2026-05-04 19:57 | 22.63416 | 55.67392 | 38778 ft | 502 kts | 55° |
| 2026-05-04 19:57 | 22.67266 | 55.73726 | 38780 ft | 502 kts | 55° |
| 2026-05-04 19:58 | 22.71115 | 55.80054 | 38782 ft | 502 kts | 54° |
| 2026-05-04 19:58 | 22.74938 | 55.86349 | 38782 ft | 501 kts | 55° |
| 2026-05-04 19:59 | 22.78782 | 55.92690 | 38786 ft | 504 kts | 54° |
| 2026-05-04 19:59 | 22.82618 | 55.99031 | 38785 ft | 505 kts | 55° |
| 2026-05-04 20:00 | 22.86476 | 56.05410 | 38790 ft | 505 kts | 54° |
| 2026-05-04 20:00 | 22.90339 | 56.11800 | 38794 ft | 505 kts | 55° |
| 2026-05-04 20:01 | 22.94171 | 56.18150 | 38795 ft | 505 kts | 55° |
| 2026-05-04 20:01 | 22.98020 | 56.24538 | 38794 ft | 505 kts | 55° |
| 2026-05-04 20:02 | 23.01849 | 56.30901 | 38794 ft | 505 kts | 55° |
| 2026-05-04 20:02 | 23.05618 | 56.37361 | 38796 ft | 504 kts | 57° |
| 2026-05-04 20:03 | 23.09214 | 56.43859 | 38802 ft | 504 kts | 57° |
| 2026-05-04 20:03 | 23.12812 | 56.50369 | 38728 ft | 502 kts | 57° |
| 2026-05-04 20:03 | 23.14625 | 56.53632 | 38171 ft | 502 kts | 57° |
| 2026-05-04 20:04 | 23.15831 | 56.55795 | 37670 ft | 504 kts | 57° |
| 2026-05-04 20:04 | 23.17658 | 56.59068 | 36948 ft | 506 kts | 57° |
| 2026-05-04 20:04 | 23.19495 | 56.62351 | 36258 ft | 508 kts | 57° |
| 2026-05-04 20:04 | 23.21324 | 56.65612 | 35601 ft | 510 kts | 56° |
| 2026-05-04 20:05 | 23.23176 | 56.68914 | 34822 ft | 513 kts | 57° |
| 2026-05-04 20:05 | 23.25023 | 56.72210 | 34127 ft | 516 kts | 57° |
| 2026-05-04 20:05 | 23.26856 | 56.75485 | 33430 ft | 517 kts | 57° |
| 2026-05-04 20:05 | 23.28771 | 56.78911 | 32595 ft | 518 kts | 57° |
| 2026-05-04 20:06 | 23.30626 | 56.82232 | 31792 ft | 520 kts | 57° |
| 2026-05-04 20:06 | 23.32511 | 56.85616 | 30970 ft | 522 kts | 57° |
| 2026-05-04 20:06 | 23.34085 | 56.89188 | 30159 ft | 527 kts | 69° |
| 2026-05-04 20:06 | 23.35071 | 56.93065 | 29247 ft | 530 kts | 76° |
| 2026-05-04 20:07 | 23.35840 | 56.96994 | 28417 ft | 529 kts | 77° |
| 2026-05-04 20:07 | 23.36562 | 57.00861 | 27711 ft | 525 kts | 77° |
| 2026-05-04 20:07 | 23.37276 | 57.04719 | 26675 ft | 510 kts | 77° |
| 2026-05-04 20:07 | 23.37970 | 57.08446 | 25065 ft | 495 kts | 77° |
| 2026-05-04 20:08 | 23.38767 | 57.12060 | 23817 ft | 478 kts | 74° |
| 2026-05-04 20:08 | 23.39565 | 57.15508 | 23487 ft | 468 kts | 74° |
| 2026-05-04 20:08 | 23.40352 | 57.18939 | 23236 ft | 473 kts | 75° |
| 2026-05-04 20:08 | 23.41139 | 57.22414 | 22885 ft | 468 kts | 75° |
| 2026-05-04 20:09 | 23.41909 | 57.25841 | 22496 ft | 462 kts | 75° |
| 2026-05-04 20:09 | 23.42665 | 57.29228 | 22076 ft | 458 kts | 75° |
| 2026-05-04 20:09 | 23.43414 | 57.32588 | 21687 ft | 454 kts | 75° |
| 2026-05-04 20:09 | 23.44145 | 57.35874 | 21288 ft | 450 kts | 75° |
| 2026-05-04 20:10 | 23.44877 | 57.39177 | 20880 ft | 445 kts | 75° |
| 2026-05-04 20:10 | 23.45602 | 57.42448 | 20493 ft | 441 kts | 74° |
| 2026-05-04 20:10 | 23.46318 | 57.45687 | 20105 ft | 437 kts | 74° |
| 2026-05-04 20:10 | 23.47026 | 57.48889 | 19728 ft | 433 kts | 74° |
| 2026-05-04 20:11 | 23.47716 | 57.52013 | 19337 ft | 429 kts | 74° |
| 2026-05-04 20:11 | 23.48303 | 57.55199 | 18962 ft | 427 kts | 82° |
| 2026-05-04 20:11 | 23.48437 | 57.58436 | 18597 ft | 425 kts | 87° |
| 2026-05-04 20:11 | 23.48442 | 57.61654 | 18235 ft | 421 kts | 88° |
| 2026-05-04 20:12 | 23.48441 | 57.64847 | 17832 ft | 418 kts | 88° |
| 2026-05-04 20:12 | 23.48443 | 57.67968 | 17462 ft | 416 kts | 87° |
| 2026-05-04 20:12 | 23.48449 | 57.71118 | 17081 ft | 414 kts | 87° |
| 2026-05-04 20:12 | 23.48455 | 57.74265 | 16716 ft | 412 kts | 88° |
| 2026-05-04 20:13 | 23.48462 | 57.77378 | 16348 ft | 410 kts | 88° |
| 2026-05-04 20:13 | 23.48469 | 57.80472 | 15996 ft | 408 kts | 88° |
| 2026-05-04 20:13 | 23.48475 | 57.83520 | 15626 ft | 406 kts | 88° |
| 2026-05-04 20:13 | 23.48481 | 57.86599 | 15277 ft | 404 kts | 88° |
| 2026-05-04 20:14 | 23.48487 | 57.89662 | 14919 ft | 402 kts | 88° |
| 2026-05-04 20:14 | 23.48462 | 57.92709 | 14554 ft | 401 kts | 89° |
| 2026-05-04 20:14 | 23.48401 | 57.95708 | 14201 ft | 398 kts | 90° |
| 2026-05-04 20:14 | 23.48367 | 57.98704 | 18694 ft | 393 kts | 88° |
| 2026-05-04 20:15 | 23.48313 | 58.01694 | 18005 ft | 398 kts | 88° |
| 2026-05-04 20:15 | 23.48245 | 58.04753 | 17017 ft | 406 kts | 89° |
| 2026-05-04 20:15 | 23.48181 | 58.07825 | 16163 ft | 412 kts | 89° |
| 2026-05-04 20:15 | 23.48118 | 58.10958 | 15393 ft | 414 kts | 89° |
| 2026-05-04 20:16 | 23.48055 | 58.14108 | 14713 ft | 413 kts | 90° |
| 2026-05-04 20:16 | 23.47994 | 58.17201 | 14449 ft | 401 kts | 90° |
| 2026-05-04 20:16 | 23.47935 | 58.20190 | 14262 ft | 389 kts | 90° |
| 2026-05-04 20:16 | 23.47880 | 58.23051 | 14068 ft | 377 kts | 89° |
| 2026-05-04 20:17 | 23.47971 | 58.25861 | 13901 ft | 364 kts | 84° |
| 2026-05-04 20:17 | 23.48191 | 58.28578 | 13740 ft | 354 kts | 83° |
| 2026-05-04 20:17 | 23.48418 | 58.31205 | 13597 ft | 344 kts | 83° |
| 2026-05-04 20:17 | 23.48637 | 58.33765 | 13462 ft | 334 kts | 83° |
| 2026-05-04 20:18 | 23.48845 | 58.36229 | 13161 ft | 320 kts | 83° |
| 2026-05-04 20:18 | 23.49043 | 58.38578 | 12405 ft | 313 kts | 83° |
| 2026-05-04 20:18 | 23.49240 | 58.40981 | 11483 ft | 312 kts | 84° |
| 2026-05-04 20:18 | 23.49434 | 58.43303 | 10636 ft | 310 kts | 84° |
| 2026-05-04 20:19 | 23.49629 | 58.45650 | 9851 ft | 309 kts | 85° |
| 2026-05-04 20:19 | 23.49823 | 58.47990 | 9261 ft | 309 kts | 85° |
| 2026-05-04 20:19 | 23.50013 | 58.50292 | 8687 ft | 301 kts | 84° |
| 2026-05-04 20:19 | 23.50197 | 58.52538 | 7915 ft | 296 kts | 84° |
| 2026-05-04 20:20 | 23.50377 | 58.54742 | 7523 ft | 290 kts | 84° |
| 2026-05-04 20:20 | 23.50558 | 58.56951 | 7411 ft | 294 kts | 84° |
| 2026-05-04 20:20 | 23.50736 | 58.59133 | 7190 ft | 290 kts | 84° |
| 2026-05-04 20:20 | 23.50962 | 58.61315 | 6870 ft | 290 kts | 78° |
| 2026-05-04 20:21 | 23.51750 | 58.63312 | 6533 ft | 287 kts | 51° |
| 2026-05-04 20:21 | 23.53296 | 58.64626 | 6248 ft | 282 kts | 22° |
| 2026-05-04 20:21 | 23.57026 | 58.64289 | 5816 ft | 278 kts | 327° |
| 2026-05-04 20:22 | 23.58337 | 58.62797 | 5414 ft | 279 kts | 298° |
| 2026-05-04 20:22 | 23.58865 | 58.60781 | 4972 ft | 278 kts | 273° |
| 2026-05-04 20:22 | 23.59091 | 58.58725 | 4561 ft | 265 kts | 285° |
| 2026-05-04 20:22 | 23.59904 | 58.57046 | 4282 ft | 245 kts | 311° |
| 2026-05-04 20:23 | 23.60997 | 58.55722 | 3956 ft | 227 kts | 303° |
| 2026-05-04 20:23 | 23.61407 | 58.54117 | 3572 ft | 216 kts | 268° |
| 2026-05-04 20:23 | 23.61266 | 58.52535 | 3274 ft | 207 kts | 261° |
| 2026-05-04 20:23 | 23.61099 | 58.50982 | 3038 ft | 207 kts | 263° |
| 2026-05-04 20:24 | 23.60972 | 58.49452 | 2988 ft | 191 kts | 264° |
| 2026-05-04 20:24 | 23.60871 | 58.48117 | 2934 ft | 169 kts | 264° |
| 2026-05-04 20:24 | 23.60785 | 58.46904 | 2777 ft | 152 kts | 263° |
| 2026-05-04 20:24 | 23.60698 | 58.45798 | 2577 ft | 141 kts | 263° |
| 2026-05-04 20:25 | 23.60612 | 58.44745 | 2404 ft | 139 kts | 263° |
| 2026-05-04 20:25 | 23.60528 | 58.43696 | 2233 ft | 140 kts | 263° |
| 2026-05-04 20:25 | 23.60443 | 58.42635 | 2054 ft | 139 kts | 263° |
| 2026-05-04 20:25 | 23.60360 | 58.41595 | 1877 ft | 139 kts | 263° |
| 2026-05-04 20:26 | 23.60275 | 58.40540 | 1705 ft | 139 kts | 263° |
| 2026-05-04 20:26 | 23.60192 | 58.39488 | 1542 ft | 139 kts | 263° |
| 2026-05-04 20:26 | 23.60107 | 58.38438 | 1391 ft | 138 kts | 264° |
| 2026-05-04 20:26 | 23.60025 | 58.37406 | 1237 ft | 138 kts | 263° |
| 2026-05-04 20:27 | 23.59941 | 58.36356 | 1075 ft | 139 kts | 264° |
| 2026-05-04 20:27 | 23.59856 | 58.35295 | 908 ft | 141 kts | 265° |
| 2026-05-04 20:27 | 23.59771 | 58.34233 | 721 ft | 139 kts | 264° |
| 2026-05-04 20:27 | 23.59689 | 58.33192 | 533 ft | 137 kts | 264° |
| 2026-05-04 20:28 | 23.59607 | 58.32184 | 368 ft | 133 kts | 264° |
| 2026-05-04 20:28 | 23.59529 | 58.31174 | 181 ft | 132 kts | 264° |
| 2026-05-04 20:28 | 23.59449 | 58.30182 | 67 ft | 132 kts | 264° |
| 2026-05-04 20:28 | 23.59378 | 58.29277 | 49 ft | 97 kts | 265° |
| 2026-05-04 20:29 | 23.59335 | 58.28745 | 48 ft | 45 kts | 265° |
| 2026-05-04 20:29 | 23.59317 | 58.28514 | 48 ft | 29 kts | 265° |
| 2026-05-04 20:29 | 23.59299 | 58.28279 | 48 ft | 31 kts | 265° |
| 2026-05-04 20:29 | 23.59280 | 58.28048 | 48 ft | 31 kts | 265° |
| 2026-05-04 20:30 | 23.59261 | 58.27813 | 47 ft | 31 kts | 265° |
| 2026-05-04 20:30 | 23.59241 | 58.27584 | 49 ft | 30 kts | 264° |
| 2026-05-04 20:30 | 23.59221 | 58.27353 | 48 ft | 30 kts | 264° |
| 2026-05-04 20:30 | 23.59201 | 58.27128 | 50 ft | 29 kts | 264° |
| 2026-05-04 20:31 | 23.59183 | 58.26910 | 49 ft | 29 kts | 265° |
| 2026-05-04 20:31 | 23.59176 | 58.26728 | 49 ft | 0 kts | 287° |
| 2026-05-04 20:31 | 23.59193 | 58.26706 | 49 ft | 10 kts | 319° |
| 2026-05-04 20:31 | 23.59290 | 58.26688 | 49 ft | 17 kts | 355° |
| 2026-05-04 20:32 | 23.59408 | 58.26678 | 48 ft | 16 kts | 359° |
| 2026-05-04 20:32 | 23.59465 | 58.26736 | 49 ft | 10 kts | 85° |
| 2026-05-04 20:32 | 23.59473 | 58.26822 | 49 ft | 13 kts | 85° |
| 2026-05-04 20:32 | 23.59482 | 58.26935 | 49 ft | 17 kts | 85° |
| 2026-05-04 20:33 | 23.59493 | 58.27070 | 48 ft | 19 kts | 85° |
| 2026-05-04 20:33 | 23.59506 | 58.27223 | 49 ft | 21 kts | 85° |
| 2026-05-04 20:33 | 23.59520 | 58.27391 | 49 ft | 23 kts | 85° |
| 2026-05-04 20:33 | 23.59535 | 58.27564 | 49 ft | 21 kts | 84° |
| 2026-05-04 20:34 | 23.59579 | 58.27710 | 49 ft | 21 kts | 43° |
| 2026-05-04 20:34 | 23.59695 | 58.27817 | 49 ft | 22 kts | 40° |
| 2026-05-04 20:34 | 23.59815 | 58.27927 | 49 ft | 18 kts | 44° |
| 2026-05-04 20:34 | 23.59842 | 58.28058 | 49 ft | 19 kts | 85° |
| 2026-05-04 20:35 | 23.59856 | 58.28204 | 49 ft | 20 kts | 84° |
| 2026-05-04 20:35 | 23.59869 | 58.28363 | 49 ft | 22 kts | 85° |
| 2026-05-04 20:35 | 23.59878 | 58.28471 | 49 ft | 10 kts | 85° |
| 2026-05-04 20:35 | 23.59916 | 58.28535 | 49 ft | 11 kts | 41° |
| 2026-05-04 20:36 | 23.59960 | 58.28575 | 46 ft | 3 kts | 40° |
| 2026-05-04 20:36 | 23.59975 | 58.28589 | 47 ft | 0 kts | 40° |